createdAt,value
2022-12-27T00:02:24.438Z,3.73
2022-12-27T00:04:50.852Z,3.58
2022-12-27T00:07:17.201Z,3.35
2022-12-27T00:09:43.621Z,3.26
2022-12-27T00:12:09.963Z,3.29
2022-12-27T00:14:39.230Z,3.18
2022-12-27T00:17:05.620Z,3.34
2022-12-27T00:19:32.006Z,3.23
2022-12-27T00:21:58.421Z,3.36
2022-12-27T00:24:24.817Z,3.30
2022-12-27T00:26:51.199Z,3.34
2022-12-27T00:29:17.637Z,3.44
2022-12-27T00:31:44.064Z,3.44
2022-12-27T00:34:10.430Z,3.51
2022-12-27T00:36:36.798Z,3.75
2022-12-27T00:39:03.213Z,3.45
2022-12-27T00:41:29.607Z,3.67
2022-12-27T00:43:56.065Z,3.54
2022-12-27T00:46:22.435Z,3.53
2022-12-27T00:48:48.781Z,3.77
2022-12-27T00:51:15.154Z,3.77
2022-12-27T00:53:41.506Z,3.80
2022-12-27T00:56:08.088Z,3.48
2022-12-27T00:58:39.850Z,3.59
2022-12-27T01:01:07.212Z,3.55
2022-12-27T01:03:33.663Z,3.47
2022-12-27T01:06:00.033Z,3.49
2022-12-27T01:08:26.437Z,3.45
2022-12-27T01:10:52.809Z,3.54
2022-12-27T01:13:19.167Z,3.46
2022-12-27T01:15:45.519Z,3.39
2022-12-27T01:18:14.747Z,3.38
2022-12-27T01:20:41.107Z,3.46
2022-12-27T01:23:07.426Z,3.36
2022-12-27T01:25:33.841Z,3.45
2022-12-27T01:28:00.195Z,3.41
2022-12-27T01:30:26.579Z,3.42
2022-12-27T01:32:52.918Z,3.45
2022-12-27T01:35:19.274Z,3.50
2022-12-27T01:37:45.618Z,3.42
2022-12-27T01:40:11.979Z,3.51
2022-12-27T01:42:53.444Z,3.34
2022-12-27T01:45:19.821Z,3.36
2022-12-27T01:47:46.144Z,3.24
2022-12-27T01:50:12.543Z,3.41
2022-12-27T01:52:39.069Z,3.27
2022-12-27T01:55:05.428Z,3.18
2022-12-27T01:57:31.781Z,3.19
2022-12-27T01:59:58.163Z,3.09
2022-12-27T02:02:24.636Z,3.12
2022-12-27T02:04:51.375Z,2.93
2022-12-27T02:07:17.712Z,3.12
2022-12-27T02:09:44.107Z,2.81
2022-12-27T02:12:10.416Z,2.85
2022-12-27T02:14:36.767Z,2.54
2022-12-27T02:17:03.151Z,2.57
2022-12-27T02:19:30.052Z,2.63
2022-12-27T02:21:56.417Z,2.55
2022-12-27T02:24:22.776Z,2.52
2022-12-27T02:26:49.275Z,2.47
2022-12-27T02:29:15.926Z,2.33
2022-12-27T02:31:42.378Z,2.36
2022-12-27T02:34:08.763Z,2.47
2022-12-27T02:36:35.350Z,2.40
2022-12-27T02:39:01.727Z,2.42
2022-12-27T02:41:46.997Z,2.41
2022-12-27T02:44:32.211Z,2.44
2022-12-27T02:47:17.247Z,2.29
2022-12-27T02:50:02.190Z,2.33
2022-12-27T02:52:47.370Z,2.06
2022-12-27T02:55:13.736Z,2.09
2022-12-27T02:57:40.096Z,2.16
2022-12-27T03:00:25.292Z,2.15
2022-12-27T03:03:10.623Z,2.15
2022-12-27T03:05:37.031Z,2.18
2022-12-27T03:08:03.444Z,2.15
2022-12-27T03:10:48.647Z,2.01
2022-12-27T03:13:33.603Z,2.30
2022-12-27T03:16:00.020Z,2.18
2022-12-27T03:18:26.431Z,1.92
2022-12-27T03:21:11.675Z,2.02
2022-12-27T03:23:56.742Z,1.90
2022-12-27T03:26:23.111Z,2.11
2022-12-27T03:29:08.216Z,1.95
2022-12-27T03:31:53.420Z,1.80
2022-12-27T03:34:32.211Z,2.00
2022-12-27T03:37:17.396Z,1.93
2022-12-27T03:39:44.242Z,1.94
2022-12-27T03:42:29.411Z,2.15
2022-12-27T03:44:55.829Z,1.90
2022-12-27T03:47:22.170Z,2.16
2022-12-27T03:49:48.532Z,1.61
2022-12-27T03:52:14.878Z,1.87
2022-12-27T03:54:41.263Z,1.91
2022-12-27T03:57:07.677Z,1.88
2022-12-27T03:59:34.012Z,1.76
2022-12-27T04:02:00.459Z,1.87
2022-12-27T04:04:26.967Z,1.88
2022-12-27T04:06:53.363Z,1.71
2022-12-27T04:09:38.652Z,1.55
2022-12-27T04:12:23.757Z,1.58
2022-12-27T04:15:09.136Z,1.76
2022-12-27T04:17:54.198Z,1.56
2022-12-27T04:20:39.205Z,1.54
2022-12-27T04:23:24.231Z,1.78
2022-12-27T04:26:09.045Z,1.43
2022-12-27T04:28:54.102Z,1.30
2022-12-27T04:31:39.311Z,1.23
2022-12-27T04:34:24.426Z,1.39
2022-12-27T04:36:50.773Z,1.25
2022-12-27T04:39:17.171Z,1.46
2022-12-27T04:42:03.072Z,1.47
2022-12-27T04:44:48.417Z,1.64
2022-12-27T04:47:33.357Z,1.56
2022-12-27T04:50:18.597Z,1.41
2022-12-27T04:53:03.704Z,1.34
2022-12-27T04:55:32.178Z,1.32
2022-12-27T04:57:58.556Z,1.07
2022-12-27T05:00:43.463Z,1.26
2022-12-27T05:03:09.922Z,1.14
2022-12-27T05:05:36.349Z,1.17
2022-12-27T05:08:21.541Z,1.16
2022-12-27T05:11:06.538Z,1.11
2022-12-27T05:13:51.538Z,1.24
2022-12-27T05:16:17.969Z,1.30
2022-12-27T05:18:44.425Z,1.26
2022-12-27T05:21:10.809Z,1.38
2022-12-27T05:24:00.254Z,1.51
2022-12-27T05:26:29.875Z,1.29
2022-12-27T05:28:56.218Z,1.62
2022-12-27T05:31:22.670Z,1.26
2022-12-27T05:33:49.060Z,1.07
2022-12-27T05:36:15.442Z,1.15
2022-12-27T05:38:41.907Z,1.22
2022-12-27T05:41:08.333Z,1.12
2022-12-27T05:43:34.675Z,1.16
2022-12-27T05:46:01.043Z,1.29
2022-12-27T05:48:27.371Z,1.60
2022-12-27T05:50:53.794Z,1.36
2022-12-27T05:53:22.805Z,1.39
2022-12-27T05:55:49.147Z,1.27
2022-12-27T05:58:15.495Z,1.13
2022-12-27T06:00:41.883Z,1.13
2022-12-27T06:03:08.365Z,1.12
2022-12-27T06:05:34.783Z,1.08
2022-12-27T06:08:01.154Z,1.16
2022-12-27T06:10:27.518Z,1.07
2022-12-27T06:12:53.884Z,1.26
2022-12-27T06:15:20.261Z,1.18
2022-12-27T06:17:46.617Z,1.27
2022-12-27T06:20:13.023Z,1.05
2022-12-27T06:22:39.340Z,0.93
2022-12-27T06:25:08.707Z,0.96
2022-12-27T06:27:37.179Z,1.08
2022-12-27T06:30:03.566Z,1.09
2022-12-27T06:32:29.902Z,1.08
2022-12-27T06:34:56.395Z,1.19
2022-12-27T06:37:22.730Z,1.19
2022-12-27T06:39:49.188Z,1.03
2022-12-27T06:42:15.982Z,1.06
2022-12-27T06:44:42.387Z,1.18
2022-12-27T06:47:08.762Z,1.15
2022-12-27T06:49:35.131Z,1.24
2022-12-27T06:52:01.477Z,1.26
2022-12-27T06:54:27.849Z,1.26
2022-12-27T06:56:55.622Z,1.14
2022-12-27T06:59:22.006Z,1.21
2022-12-27T07:01:48.392Z,1.28
2022-12-27T07:04:14.760Z,1.13
2022-12-27T07:06:41.159Z,1.12
2022-12-27T07:09:07.528Z,1.25
2022-12-27T07:11:33.918Z,1.28
2022-12-27T07:14:00.296Z,1.38
2022-12-27T07:16:26.839Z,1.42
2022-12-27T07:18:53.244Z,1.50
2022-12-27T07:21:19.581Z,1.50
2022-12-27T07:23:45.900Z,1.50
2022-12-27T07:26:12.270Z,1.54
2022-12-27T07:28:38.647Z,1.68
2022-12-27T07:31:05.013Z,1.55
2022-12-27T07:33:31.346Z,1.60
2022-12-27T07:35:57.720Z,1.75
2022-12-27T07:38:24.076Z,1.72
2022-12-27T07:40:50.441Z,1.88
2022-12-27T07:43:16.756Z,2.00
2022-12-27T07:45:43.299Z,1.92
2022-12-27T07:48:09.668Z,2.01
2022-12-27T07:50:36.237Z,1.97
2022-12-27T07:53:02.648Z,2.06
2022-12-27T07:55:29.006Z,2.08
2022-12-27T07:57:55.353Z,2.08
2022-12-27T08:00:21.715Z,2.01
2022-12-27T08:02:48.099Z,2.00
2022-12-27T08:05:14.502Z,2.03
2022-12-27T08:07:41.134Z,2.12
2022-12-27T08:10:07.551Z,2.20
2022-12-27T08:12:34.446Z,2.26
2022-12-27T08:15:00.852Z,2.16
2022-12-27T08:17:27.368Z,2.16
2022-12-27T08:19:53.783Z,2.19
2022-12-27T08:22:20.115Z,2.24
2022-12-27T08:24:46.556Z,2.47
2022-12-27T08:27:12.896Z,2.37
2022-12-27T08:29:39.324Z,2.43
2022-12-27T08:32:05.681Z,2.41
2022-12-27T08:34:32.033Z,2.48
2022-12-27T08:36:59.813Z,2.41
2022-12-27T08:39:26.196Z,2.51
2022-12-27T08:41:52.572Z,2.48
2022-12-27T08:44:18.978Z,2.53
2022-12-27T08:46:45.371Z,2.55
2022-12-27T08:49:11.733Z,2.57
2022-12-27T08:51:41.099Z,2.75
2022-12-27T08:54:08.025Z,2.89
2022-12-27T08:56:34.374Z,2.83
2022-12-27T08:59:00.788Z,2.81
2022-12-27T09:01:27.316Z,2.73
2022-12-27T09:03:53.814Z,2.87
2022-12-27T09:06:20.221Z,2.78
2022-12-27T09:08:46.603Z,2.74
2022-12-27T09:11:13.013Z,2.74
2022-12-27T09:13:39.376Z,2.68
2022-12-27T09:16:06.007Z,2.76
2022-12-27T09:18:32.376Z,2.79
2022-12-27T09:20:58.773Z,2.86
2022-12-27T09:23:25.690Z,2.88
2022-12-27T09:25:52.068Z,3.03
2022-12-27T09:28:18.398Z,3.07
2022-12-27T09:30:44.832Z,2.98
2022-12-27T09:33:11.276Z,2.87
2022-12-27T09:35:38.758Z,3.09
2022-12-27T09:38:05.642Z,3.07
2022-12-27T09:40:32.043Z,3.18
2022-12-27T09:43:11.831Z,3.25
2022-12-27T09:45:39.274Z,3.31
2022-12-27T09:48:06.016Z,3.35
2022-12-27T09:50:32.429Z,3.31
2022-12-27T09:52:58.767Z,3.34
2022-12-27T09:55:25.129Z,3.38
2022-12-27T09:57:51.481Z,3.45
2022-12-27T10:00:19.406Z,3.35
2022-12-27T10:03:01.271Z,3.46
2022-12-27T10:05:27.717Z,3.41
2022-12-27T10:07:54.117Z,3.57
2022-12-27T10:10:20.597Z,3.64
2022-12-27T10:12:47.139Z,3.73
2022-12-27T10:15:13.559Z,3.72
2022-12-27T10:17:40.032Z,3.95
2022-12-27T10:20:07.710Z,3.83
2022-12-27T10:22:34.831Z,4.47
2022-12-27T10:25:01.294Z,4.64
2022-12-27T10:27:27.797Z,5.15
2022-12-27T10:29:54.164Z,4.92
2022-12-27T10:32:20.555Z,5.13
2022-12-27T10:34:47.060Z,5.43
2022-12-27T10:37:13.405Z,5.76
2022-12-27T10:39:39.765Z,5.45
2022-12-27T10:42:06.136Z,5.79
2022-12-27T10:44:32.589Z,5.54
2022-12-27T10:46:59.040Z,5.34
2022-12-27T10:49:25.520Z,5.14
2022-12-27T10:51:51.897Z,4.73
2022-12-27T10:54:18.241Z,4.53
2022-12-27T10:56:44.976Z,4.12
2022-12-27T10:59:15.691Z,4.03
2022-12-27T11:01:42.206Z,4.06
2022-12-27T11:04:09.583Z,4.01
2022-12-27T11:06:38.391Z,4.06
2022-12-27T11:09:04.908Z,4.10
2022-12-27T11:11:31.321Z,4.15
2022-12-27T11:13:57.676Z,4.17
2022-12-27T11:16:24.105Z,4.16
2022-12-27T11:18:50.632Z,4.03
2022-12-27T11:21:25.675Z,4.27
2022-12-27T11:23:54.613Z,4.37
2022-12-27T11:26:21.063Z,4.33
2022-12-27T11:28:47.392Z,4.14
2022-12-27T11:31:13.812Z,4.37
2022-12-27T11:33:41.086Z,4.66
2022-12-27T11:36:10.255Z,4.67
2022-12-27T11:38:38.432Z,4.30
2022-12-27T11:41:04.824Z,4.21
2022-12-27T11:43:31.185Z,4.18
2022-12-27T11:45:57.552Z,4.25
2022-12-27T11:48:23.935Z,4.42
2022-12-27T11:50:50.362Z,4.30
2022-12-27T11:53:16.748Z,4.14
2022-12-27T11:55:43.142Z,4.29
2022-12-27T11:58:09.527Z,4.22
2022-12-27T12:00:35.888Z,4.31
2022-12-27T12:03:02.400Z,4.19
2022-12-27T12:05:28.866Z,4.07
2022-12-27T12:07:55.383Z,4.12
2022-12-27T12:10:21.833Z,4.08
2022-12-27T12:12:48.188Z,3.89
2022-12-27T12:15:14.571Z,3.95
2022-12-27T12:17:41.149Z,3.97
2022-12-27T12:20:07.540Z,4.03
2022-12-27T12:22:33.911Z,4.02
2022-12-27T12:25:00.287Z,4.25
2022-12-27T12:27:26.625Z,4.41
2022-12-27T12:30:00.356Z,5.01
2022-12-27T12:32:28.261Z,5.48
2022-12-27T12:34:54.693Z,5.65
2022-12-27T12:37:21.018Z,5.69
2022-12-27T12:39:47.485Z,5.76
2022-12-27T12:42:13.911Z,5.61
2022-12-27T12:44:41.836Z,5.40
2022-12-27T12:47:08.389Z,5.52
2022-12-27T12:49:34.799Z,5.48
2022-12-27T12:52:01.232Z,5.84
2022-12-27T12:54:27.715Z,6.02
2022-12-27T12:56:54.140Z,6.02
2022-12-27T12:59:20.571Z,6.14
2022-12-27T13:01:51.112Z,6.68
2022-12-27T13:04:17.778Z,6.86
2022-12-27T13:06:44.810Z,6.16
2022-12-27T13:09:11.301Z,6.23
2022-12-27T13:11:37.733Z,6.59
2022-12-27T13:14:04.168Z,6.05
2022-12-27T13:16:30.517Z,6.16
2022-12-27T13:18:57.176Z,6.22
2022-12-27T13:21:23.650Z,6.20
2022-12-27T13:23:52.915Z,6.08
2022-12-27T13:26:19.271Z,5.76
2022-12-27T13:28:45.616Z,5.57
2022-12-27T13:31:12.013Z,5.58
2022-12-27T13:33:38.464Z,5.40
2022-12-27T13:36:05.169Z,5.57
2022-12-27T13:38:33.143Z,5.45
2022-12-27T13:40:59.586Z,5.31
2022-12-27T13:43:26.033Z,4.96
2022-12-27T13:45:52.461Z,4.78
2022-12-27T13:48:19.086Z,4.79
2022-12-27T13:50:45.556Z,4.62
2022-12-27T13:53:11.993Z,4.65
2022-12-27T13:55:38.435Z,4.67
2022-12-27T13:58:04.976Z,4.62
2022-12-27T14:00:31.365Z,4.51
2022-12-27T14:02:58.012Z,4.59
2022-12-27T14:05:24.540Z,4.60
2022-12-27T14:07:50.975Z,4.66
2022-12-27T14:10:17.348Z,4.67
2022-12-27T14:12:43.753Z,4.61
2022-12-27T14:15:10.118Z,4.55
2022-12-27T14:17:36.483Z,4.79
2022-12-27T14:20:02.909Z,4.84
2022-12-27T14:22:29.568Z,4.72
2022-12-27T14:24:55.984Z,4.57
2022-12-27T14:27:22.415Z,4.76
2022-12-27T14:29:48.820Z,4.72
2022-12-27T14:32:15.186Z,4.79
2022-12-27T14:34:41.563Z,4.46
2022-12-27T14:37:08.017Z,4.42
2022-12-27T14:39:35.128Z,4.35
2022-12-27T14:42:01.545Z,4.35
2022-12-27T14:44:27.937Z,4.34
2022-12-27T14:46:54.413Z,4.37
2022-12-27T14:49:20.888Z,4.32
2022-12-27T14:52:08.551Z,4.24
2022-12-27T14:54:33.548Z,4.20
2022-12-27T14:57:00.171Z,4.22
2022-12-27T14:59:26.586Z,4.25
2022-12-27T15:01:53.065Z,4.22
2022-12-27T15:04:19.538Z,4.12
2022-12-27T15:06:45.904Z,4.08
2022-12-27T15:09:12.271Z,4.03
2022-12-27T15:11:38.619Z,4.07
2022-12-27T15:14:05.127Z,4.06
2022-12-27T15:16:31.573Z,4.03
2022-12-27T15:18:57.987Z,3.96
2022-12-27T15:21:24.337Z,4.01
2022-12-27T15:23:50.691Z,3.99
2022-12-27T15:26:17.159Z,4.22
2022-12-27T15:28:43.498Z,4.02
2022-12-27T15:31:09.976Z,3.92
2022-12-27T15:33:36.335Z,3.81
2022-12-27T15:36:02.688Z,3.81
2022-12-27T15:38:29.041Z,3.90
2022-12-27T15:40:55.465Z,3.99
2022-12-27T15:43:22.228Z,4.01
2022-12-27T15:45:48.715Z,4.02
2022-12-27T15:48:15.611Z,4.12
2022-12-27T15:50:42.010Z,3.90
2022-12-27T15:53:08.412Z,4.00
2022-12-27T15:55:34.774Z,3.95
2022-12-27T15:58:01.284Z,4.07
2022-12-27T16:00:32.461Z,3.85
2022-12-27T16:03:00.238Z,3.95
2022-12-27T16:05:26.799Z,3.92
2022-12-27T16:07:53.163Z,4.14
2022-12-27T16:10:19.594Z,4.10
2022-12-27T16:12:45.967Z,4.15
2022-12-27T16:15:12.531Z,4.27
2022-12-27T16:17:38.862Z,4.05
2022-12-27T16:20:05.898Z,3.93
2022-12-27T16:22:32.266Z,3.99
2022-12-27T16:24:58.668Z,4.12
2022-12-27T16:27:25.034Z,4.06
2022-12-27T16:29:51.463Z,4.06
2022-12-27T16:32:17.854Z,3.92
2022-12-27T16:34:44.320Z,4.03
2022-12-27T16:37:10.731Z,3.85
2022-12-27T16:39:37.082Z,3.96
2022-12-27T16:42:03.508Z,3.88
2022-12-27T16:44:36.226Z,3.79
2022-12-27T16:47:04.630Z,3.93
2022-12-27T16:49:31.313Z,3.93
2022-12-27T16:51:57.671Z,4.03
2022-12-27T16:54:24.145Z,3.93
2022-12-27T16:56:50.540Z,3.95
2022-12-27T16:59:16.894Z,4.05
2022-12-27T17:01:43.310Z,4.14
2022-12-27T17:04:09.765Z,4.03
2022-12-27T17:06:36.102Z,3.93
2022-12-27T17:09:02.467Z,4.00
2022-12-27T17:11:28.830Z,3.88
2022-12-27T17:13:55.172Z,3.92
2022-12-27T17:16:24.499Z,4.00
2022-12-27T17:18:50.893Z,3.90
2022-12-27T17:21:17.284Z,3.84
2022-12-27T17:23:49.381Z,3.93
2022-12-27T17:26:16.912Z,4.05
2022-12-27T17:28:43.232Z,4.00
2022-12-27T17:31:10.848Z,4.09
2022-12-27T17:33:37.400Z,3.96
2022-12-27T17:36:03.884Z,3.76
2022-12-27T17:38:30.289Z,3.90
2022-12-27T17:40:56.647Z,4.06
2022-12-27T17:43:41.611Z,3.80
2022-12-27T17:46:08.274Z,4.01
2022-12-27T17:48:34.692Z,3.98
2022-12-27T17:51:01.130Z,4.02
2022-12-27T17:53:46.406Z,3.81
2022-12-27T17:56:31.408Z,3.70
2022-12-27T17:58:59.855Z,3.80
2022-12-27T18:01:26.531Z,3.48
2022-12-27T18:03:52.935Z,3.70
2022-12-27T18:06:19.306Z,3.59
2022-12-27T18:08:45.674Z,3.70
2022-12-27T18:11:12.102Z,3.68
2022-12-27T18:13:38.431Z,3.68
2022-12-27T18:16:07.628Z,3.65
2022-12-27T18:18:36.993Z,3.55
2022-12-27T18:21:04.116Z,3.54
2022-12-27T18:23:30.503Z,3.46
2022-12-27T18:25:56.885Z,3.33
2022-12-27T18:28:28.715Z,3.55
2022-12-27T18:30:58.812Z,3.26
2022-12-27T18:33:25.149Z,3.18
2022-12-27T18:35:51.784Z,3.44
2022-12-27T18:38:18.157Z,3.47
2022-12-27T18:40:44.555Z,3.29
2022-12-27T18:43:11.512Z,3.09
2022-12-27T18:45:37.933Z,3.29
2022-12-27T18:48:04.692Z,3.30
2022-12-27T18:50:31.128Z,3.41
2022-12-27T18:52:57.458Z,3.02
2022-12-27T18:55:26.758Z,3.04
2022-12-27T18:57:53.204Z,3.12
2022-12-27T19:00:19.706Z,3.11
2022-12-27T19:02:46.198Z,3.32
2022-12-27T19:05:12.647Z,3.11
2022-12-27T19:07:46.142Z,3.27
2022-12-27T19:10:12.836Z,2.91
2022-12-27T19:12:39.262Z,3.12
2022-12-27T19:15:05.664Z,3.23
2022-12-27T19:17:32.264Z,3.04
2022-12-27T19:19:58.624Z,3.06
2022-12-27T19:22:24.994Z,3.05
2022-12-27T19:24:51.370Z,3.20
2022-12-27T19:27:17.718Z,3.00
2022-12-27T19:29:44.098Z,3.19
2022-12-27T19:32:10.498Z,3.12
2022-12-27T19:34:36.897Z,3.16
2022-12-27T19:37:03.291Z,2.94
2022-12-27T19:39:29.719Z,3.04
2022-12-27T19:42:01.111Z,3.10
2022-12-27T19:44:28.103Z,3.24
2022-12-27T19:46:54.434Z,3.03
2022-12-27T19:49:42.321Z,2.88
2022-12-27T19:52:09.221Z,3.15
2022-12-27T19:54:35.596Z,2.95
2022-12-27T19:57:01.962Z,2.82
2022-12-27T19:59:28.374Z,3.34
2022-12-27T20:01:54.967Z,3.05
2022-12-27T20:04:21.458Z,3.15
2022-12-27T20:06:48.449Z,3.28
2022-12-27T20:09:15.076Z,3.22
2022-12-27T20:11:41.435Z,2.97
2022-12-27T20:14:07.760Z,2.95
2022-12-27T20:16:34.125Z,2.87
2022-12-27T20:19:02.455Z,3.12
2022-12-27T20:21:28.908Z,3.26
2022-12-27T20:23:55.264Z,3.20
2022-12-27T20:26:24.455Z,3.15
2022-12-27T20:28:53.826Z,2.88
2022-12-27T20:31:20.326Z,2.81
2022-12-27T20:33:46.743Z,3.05
2022-12-27T20:36:13.161Z,3.05
2022-12-27T20:38:39.521Z,3.06
2022-12-27T20:41:05.923Z,3.14
2022-12-27T20:43:32.268Z,3.36
2022-12-27T20:45:58.712Z,3.01
2022-12-27T20:48:25.128Z,3.00
2022-12-27T20:50:51.485Z,3.12
2022-12-27T20:53:18.217Z,3.25
2022-12-27T20:55:44.576Z,3.15
2022-12-27T20:58:10.947Z,2.85
2022-12-27T21:00:41.048Z,3.02
2022-12-27T21:03:07.527Z,3.06
2022-12-27T21:05:33.994Z,3.09
2022-12-27T21:08:00.358Z,2.84
2022-12-27T21:10:26.761Z,2.74
2022-12-27T21:12:53.153Z,2.96
2022-12-27T21:15:19.496Z,2.88
2022-12-27T21:17:45.871Z,2.93
2022-12-27T21:20:13.378Z,3.07
2022-12-27T21:22:39.789Z,3.07
2022-12-27T21:25:06.213Z,3.12
2022-12-27T21:27:32.551Z,3.20
2022-12-27T21:29:58.920Z,3.36
2022-12-27T21:32:25.268Z,3.37
2022-12-27T21:34:51.708Z,3.15
2022-12-27T21:37:18.152Z,3.04
2022-12-27T21:39:44.500Z,3.06
2022-12-27T21:42:12.402Z,3.14
2022-12-27T21:44:38.890Z,3.13
2022-12-27T21:47:05.221Z,3.10
2022-12-27T21:49:31.567Z,2.97
2022-12-27T21:51:57.965Z,2.88
2022-12-27T21:54:24.328Z,2.78
2022-12-27T21:56:50.681Z,2.77
2022-12-27T21:59:17.177Z,2.84
2022-12-27T22:01:50.639Z,2.92
2022-12-27T22:04:18.499Z,2.95
2022-12-27T22:06:47.146Z,2.79
2022-12-27T22:09:14.433Z,2.99
2022-12-27T22:11:40.859Z,2.79
2022-12-27T22:14:07.160Z,2.92
2022-12-27T22:16:33.504Z,3.07
2022-12-27T22:18:59.926Z,2.98
2022-12-27T22:21:26.363Z,3.04
2022-12-27T22:23:52.792Z,3.02
2022-12-27T22:26:19.136Z,3.15
2022-12-27T22:28:45.480Z,2.98
2022-12-27T22:31:11.866Z,3.13
2022-12-27T22:33:38.225Z,3.25
2022-12-27T22:36:04.625Z,3.37
2022-12-27T22:38:30.971Z,3.37
2022-12-27T22:40:57.320Z,3.39
2022-12-27T22:43:23.638Z,3.28
2022-12-27T22:45:53.779Z,3.19
2022-12-27T22:48:20.499Z,3.21
2022-12-27T22:50:46.886Z,3.18
2022-12-27T22:53:13.281Z,3.42
2022-12-27T22:55:39.676Z,3.52
2022-12-27T22:58:06.203Z,3.34
2022-12-27T23:00:32.563Z,3.31
2022-12-27T23:02:58.938Z,3.23
2022-12-27T23:05:25.382Z,3.18
2022-12-27T23:08:03.317Z,3.21
2022-12-27T23:10:33.191Z,3.31
2022-12-27T23:12:59.517Z,3.21
2022-12-27T23:15:25.869Z,3.22
2022-12-27T23:17:52.230Z,3.13
2022-12-27T23:20:18.635Z,3.09
2022-12-27T23:22:44.985Z,3.25
2022-12-27T23:25:11.365Z,3.31
2022-12-27T23:27:37.844Z,3.43
2022-12-27T23:30:04.228Z,3.32
2022-12-27T23:32:30.568Z,3.41
2022-12-27T23:34:56.978Z,3.37
2022-12-27T23:37:23.293Z,3.47
2022-12-27T23:39:49.671Z,3.30
2022-12-27T23:42:16.023Z,3.34
2022-12-27T23:44:42.399Z,3.32
2022-12-27T23:47:08.793Z,3.45
2022-12-27T23:49:35.218Z,3.35
2022-12-27T23:52:01.569Z,3.28
2022-12-27T23:54:27.934Z,3.33
2022-12-27T23:56:54.262Z,3.50
2022-12-27T23:59:20.638Z,3.21
